createdAt,value
2022-08-09T00:00:55.743Z,3.53
2022-08-09T00:06:22.357Z,3.30
2022-08-09T00:11:24.532Z,3.77
2022-08-09T00:16:25.875Z,3.50
2022-08-09T00:21:35.027Z,3.40
2022-08-09T00:26:43.156Z,4.10
2022-08-09T00:31:58.544Z,3.60
2022-08-09T00:37:02.568Z,3.57
2022-08-09T00:44:15.134Z,3.80
2022-08-09T00:47:19.826Z,3.70
2022-08-09T00:52:30.639Z,3.60
2022-08-09T00:57:37.212Z,3.70
2022-08-09T01:02:51.828Z,3.70
2022-08-09T01:08:01.743Z,3.90
2022-08-09T01:13:12.126Z,3.60
2022-08-09T01:18:30.241Z,3.70
2022-08-09T01:24:00.701Z,4.20
2022-08-09T01:28:52.230Z,3.57
2022-08-09T01:34:06.156Z,3.90
2022-08-09T01:39:17.953Z,3.97
2022-08-09T01:44:29.454Z,3.90
2022-08-09T01:49:41.838Z,3.60
2022-08-09T01:54:53.953Z,3.50
2022-08-09T02:00:34.352Z,4.07
2022-08-09T02:05:16.897Z,3.47
2022-08-09T02:10:29.896Z,3.93
2022-08-09T02:15:49.227Z,3.87
2022-08-09T02:20:51.521Z,3.90
2022-08-09T02:26:02.876Z,3.70
2022-08-09T02:31:16.658Z,3.63
2022-08-09T02:36:26.892Z,3.53
2022-08-09T02:41:37.386Z,3.77
2022-08-09T02:46:46.835Z,3.63
2022-08-09T02:52:00.514Z,3.67
2022-08-09T02:57:14.131Z,3.67
2022-08-09T03:02:21.967Z,4.00
2022-08-09T03:07:32.949Z,4.00
2022-08-09T03:12:42.011Z,3.90
2022-08-09T03:17:57.921Z,4.37
2022-08-09T03:23:15.172Z,4.13
2022-08-09T03:28:12.493Z,3.90
2022-08-09T03:33:22.173Z,3.83
2022-08-09T03:38:30.652Z,3.90
2022-08-09T03:43:38.280Z,4.33
2022-08-09T03:48:51.670Z,4.13
2022-08-09T03:54:04.001Z,4.10
2022-08-09T03:59:17.099Z,3.90
2022-08-09T04:04:24.561Z,3.83
2022-08-09T04:09:44.416Z,3.80
2022-08-09T04:14:53.790Z,4.00
2022-08-09T04:19:56.126Z,3.90
2022-08-09T04:25:03.971Z,3.93
2022-08-09T04:30:15.167Z,3.70
2022-08-09T04:35:23.575Z,4.10
2022-08-09T04:40:36.115Z,3.87
2022-08-09T04:45:53.004Z,3.90
2022-08-09T04:50:52.111Z,4.20
2022-08-09T04:56:00.150Z,4.00
2022-08-09T05:01:16.226Z,3.87
2022-08-09T05:06:25.870Z,4.50
2022-08-09T05:11:35.288Z,4.27
2022-08-09T05:16:57.977Z,4.00
2022-08-09T05:21:55.978Z,4.27
2022-08-09T05:27:01.877Z,4.23
2022-08-09T05:32:10.333Z,3.93
2022-08-09T05:37:19.306Z,3.60
2022-08-09T05:42:32.422Z,4.03
2022-08-09T05:47:52.965Z,4.00
2022-08-09T05:52:54.987Z,4.10
2022-08-09T05:58:04.194Z,4.10
2022-08-09T06:03:19.890Z,3.90
2022-08-09T06:08:26.048Z,4.27
2022-08-09T06:13:37.343Z,4.33
2022-08-09T06:18:49.919Z,4.13
2022-08-09T06:24:02.279Z,4.80
2022-08-09T06:29:14.972Z,4.30
2022-08-09T06:34:23.519Z,4.53
2022-08-09T06:39:58.144Z,4.40
2022-08-09T06:44:43.642Z,3.97
2022-08-09T06:50:13.783Z,4.17
2022-08-09T06:55:00.312Z,4.10
2022-08-09T07:00:51.343Z,4.37
2022-08-09T07:05:21.815Z,4.70
2022-08-09T07:10:32.086Z,4.70
2022-08-09T07:16:35.184Z,4.47
2022-08-09T07:20:51.752Z,4.47
2022-08-09T07:26:02.407Z,4.33
2022-08-09T07:31:15.158Z,4.30
2022-08-09T07:36:24.451Z,4.40
2022-08-09T07:41:38.716Z,4.10
2022-08-09T07:46:43.125Z,4.00
2022-08-09T07:52:03.458Z,4.17
2022-08-09T07:57:01.627Z,4.63
2022-08-09T08:02:19.047Z,4.37
2022-08-09T08:08:43.972Z,4.40
2022-08-09T08:12:34.510Z,4.47
2022-08-09T08:17:54.914Z,4.47
2022-08-09T08:23:01.371Z,4.60
2022-08-09T08:28:10.183Z,4.17
2022-08-09T08:33:22.808Z,3.80
2022-08-09T08:38:32.105Z,3.47
2022-08-09T08:43:41.780Z,4.00
2022-08-09T08:48:53.413Z,3.93
2022-08-09T08:54:07.435Z,4.27
2022-08-09T08:59:18.987Z,4.50
2022-08-09T09:04:47.915Z,4.23
2022-08-09T09:10:04.631Z,4.00
2022-08-09T09:15:28.395Z,4.17
2022-08-09T09:20:31.694Z,3.67
2022-08-09T09:32:04.504Z,4.33
2022-08-09T09:36:51.298Z,3.73
2022-08-09T09:42:00.236Z,4.10
2022-08-09T09:47:10.778Z,3.80
2022-08-09T09:52:36.263Z,4.10
2022-08-09T09:58:03.317Z,4.00
2022-08-09T10:02:47.575Z,4.20
2022-08-09T10:08:27.429Z,4.13
2022-08-09T10:13:24.786Z,4.37
2022-08-09T10:18:24.318Z,4.23
2022-08-09T10:23:34.928Z,4.17
2022-08-09T10:28:49.030Z,4.23
2022-08-09T10:34:08.640Z,3.80
2022-08-09T10:39:15.893Z,4.60
2022-08-09T10:44:25.360Z,4.13
2022-08-09T10:49:50.093Z,4.20
2022-08-09T10:55:01.492Z,4.10
2022-08-09T11:00:19.815Z,4.03
2022-08-09T11:05:33.994Z,4.00
2022-08-09T11:10:54.466Z,3.77
2022-08-09T11:16:04.685Z,4.23
2022-08-09T11:21:21.130Z,4.10
2022-08-09T11:26:31.322Z,3.95
2022-08-09T11:31:49.080Z,3.85
2022-08-09T11:36:56.907Z,4.10
2022-08-09T11:42:08.472Z,3.63
2022-08-09T11:47:19.585Z,4.08
2022-08-09T11:53:15.991Z,4.40
2022-08-09T11:58:02.400Z,4.37
2022-08-09T12:03:31.736Z,4.50
2022-08-09T12:08:20.085Z,4.25
2022-08-09T12:14:10.756Z,4.50
2022-08-09T12:18:41.285Z,4.47
2022-08-09T12:24:06.594Z,4.30
2022-08-09T12:29:29.722Z,4.47
2022-08-09T12:34:19.454Z,4.50
2022-08-09T12:39:29.042Z,4.62
2022-08-09T12:44:39.655Z,4.33
2022-08-09T12:49:53.103Z,4.55
2022-08-09T12:56:12.981Z,4.35
2022-08-09T13:00:17.475Z,4.67
2022-08-09T13:05:50.714Z,5.03
2022-08-09T13:10:44.114Z,5.17
2022-08-09T13:15:58.967Z,5.30
2022-08-09T13:22:36.148Z,5.45
2022-08-09T13:26:31.693Z,5.22
2022-08-09T13:32:15.356Z,5.90
2022-08-09T13:36:54.090Z,6.15
2022-08-09T13:42:12.157Z,6.35
2022-08-09T13:47:46.889Z,6.83
2022-08-09T13:52:40.566Z,7.42
2022-08-09T13:57:56.129Z,7.20
2022-08-09T14:03:58.181Z,7.28
2022-08-09T14:08:17.320Z,6.70
2022-08-09T14:14:24.070Z,7.78
2022-08-09T14:18:37.509Z,7.20
2022-08-09T14:23:55.067Z,8.15
2022-08-09T14:29:00.515Z,6.92
2022-08-09T14:34:10.132Z,7.17
2022-08-09T14:39:18.386Z,7.30
2022-08-09T14:44:32.575Z,7.22
2022-08-09T14:49:49.046Z,7.40
2022-08-09T14:54:48.353Z,7.12
2022-08-09T14:59:57.457Z,7.30
2022-08-09T15:05:07.829Z,7.08
2022-08-09T15:10:19.909Z,6.47
2022-08-09T15:15:30.196Z,6.67
2022-08-09T15:21:55.589Z,6.10
2022-08-09T15:25:50.573Z,6.12
2022-08-09T15:31:11.701Z,5.80
2022-08-09T15:36:14.430Z,5.90
2022-08-09T15:41:23.314Z,5.87
2022-08-09T15:46:35.144Z,5.47
2022-08-09T15:52:04.510Z,5.65
2022-08-09T15:56:57.072Z,5.15
2022-08-09T16:02:07.546Z,5.15
2022-08-09T16:07:19.955Z,5.15
2022-08-09T16:12:31.055Z,4.75
2022-08-09T16:17:39.127Z,5.10
2022-08-09T16:22:48.705Z,4.90
2022-08-09T16:28:00.240Z,4.83
2022-08-09T16:33:15.778Z,4.45
2022-08-09T16:38:29.674Z,4.50
2022-08-09T16:43:40.609Z,4.37
2022-08-09T16:48:53.119Z,4.35
2022-08-09T16:54:25.697Z,4.20
2022-08-09T16:59:12.372Z,4.20
2022-08-09T17:04:30.381Z,4.33
2022-08-09T17:09:47.583Z,4.03
2022-08-09T17:15:31.316Z,4.12
2022-08-09T17:20:32.362Z,4.50
2022-08-09T17:25:46.139Z,4.45
2022-08-09T17:31:04.824Z,4.20
2022-08-09T17:36:15.653Z,4.40
2022-08-09T17:41:37.642Z,4.10
2022-08-09T17:46:34.839Z,4.00
2022-08-09T17:51:44.889Z,4.27
2022-08-09T17:56:55.447Z,4.03
2022-08-09T18:02:14.814Z,4.30
2022-08-09T18:07:23.156Z,4.00
2022-08-09T18:12:40.819Z,4.17
2022-08-09T18:18:02.906Z,4.30
2022-08-09T18:22:52.405Z,4.07
2022-08-09T18:28:08.452Z,4.07
2022-08-09T18:33:13.535Z,4.23
2022-08-09T18:38:28.131Z,4.30
2022-08-09T18:43:53.058Z,3.90
2022-08-09T18:48:51.771Z,4.17
2022-08-09T18:54:08.626Z,4.20
2022-08-09T18:59:17.371Z,3.80
2022-08-09T19:04:34.739Z,4.07
2022-08-09T19:10:14.247Z,3.93
2022-08-09T19:14:51.142Z,3.77
2022-08-09T19:20:03.479Z,4.13
2022-08-09T19:25:41.348Z,3.70
2022-08-09T19:30:28.668Z,3.90
2022-08-09T19:35:57.033Z,3.93
2022-08-09T19:40:51.240Z,4.17
2022-08-09T19:46:04.201Z,3.80
2022-08-09T19:51:13.463Z,4.07
2022-08-09T19:56:28.855Z,4.80
2022-08-09T20:02:03.304Z,4.37
2022-08-09T20:06:47.444Z,4.10
2022-08-09T20:12:02.447Z,3.80
2022-08-09T20:17:13.178Z,4.00
2022-08-09T20:22:32.426Z,4.10
2022-08-09T20:27:36.700Z,4.10
2022-08-09T20:32:48.307Z,3.97
2022-08-09T20:38:22.515Z,3.87
2022-08-09T20:43:19.012Z,4.20
2022-08-09T20:48:25.731Z,4.17
2022-08-09T20:53:39.148Z,4.03
2022-08-09T20:58:48.012Z,4.30
2022-08-09T21:05:49.101Z,4.20
2022-08-09T21:09:14.318Z,4.13
2022-08-09T21:14:33.100Z,3.90
2022-08-09T21:20:19.346Z,4.00
2022-08-09T21:24:55.765Z,4.37
2022-08-09T21:30:08.546Z,3.90
2022-08-09T21:35:21.866Z,3.93
2022-08-09T21:40:32.790Z,4.40
2022-08-09T21:45:47.427Z,4.17
2022-08-09T21:51:02.216Z,4.10
2022-08-09T21:56:28.279Z,4.03
2022-08-09T22:01:26.447Z,3.80
2022-08-09T22:06:32.035Z,4.20
2022-08-09T22:12:06.286Z,4.20
2022-08-09T22:16:51.006Z,4.07
2022-08-09T22:21:59.400Z,4.50
2022-08-09T22:27:07.904Z,4.07
2022-08-09T22:32:29.836Z,4.07
2022-08-09T22:37:28.567Z,3.90
2022-08-09T22:42:39.390Z,3.90
2022-08-09T22:48:10.965Z,3.80
2022-08-09T22:53:03.749Z,4.00
2022-08-09T22:58:10.113Z,4.23
2022-08-09T23:04:02.526Z,4.23
2022-08-09T23:08:32.934Z,4.03
2022-08-09T23:13:44.399Z,4.30
2022-08-09T23:18:53.859Z,4.30
2022-08-09T23:24:05.897Z,4.20
2022-08-09T23:29:31.019Z,4.43
2022-08-09T23:34:38.332Z,3.97
2022-08-09T23:39:45.785Z,4.10
2022-08-09T23:44:53.450Z,4.10
2022-08-09T23:50:01.467Z,4.37
2022-08-09T23:55:09.364Z,4.17
